createdAt,value
2018-12-14T00:02:20.759Z,1.01
2018-12-14T00:04:48.146Z,1.03
2018-12-14T00:07:15.570Z,1.05
2018-12-14T00:09:43.035Z,1.02
2018-12-14T00:12:10.478Z,1.15
2018-12-14T00:14:37.973Z,1.23
2018-12-14T00:17:05.402Z,1.25
2018-12-14T00:19:32.866Z,1.33
2018-12-14T00:22:00.262Z,1.37
2018-12-14T00:24:27.766Z,1.22
2018-12-14T00:26:55.354Z,1.26
2018-12-14T00:29:22.746Z,1.41
2018-12-14T00:31:50.128Z,1.41
2018-12-14T00:34:17.522Z,1.38
2018-12-14T00:36:44.906Z,1.40
2018-12-14T00:39:12.307Z,1.48
2018-12-14T00:41:39.704Z,1.48
2018-12-14T00:44:07.099Z,1.51
2018-12-14T00:46:36.386Z,1.57
2018-12-14T00:49:03.870Z,1.63
2018-12-14T00:51:31.342Z,1.37
2018-12-14T00:53:58.803Z,1.38
2018-12-14T00:56:26.238Z,1.41
2018-12-14T00:58:53.699Z,1.40
2018-12-14T01:01:21.153Z,1.46
2018-12-14T01:03:48.554Z,1.44
2018-12-14T01:06:15.958Z,1.46
2018-12-14T01:08:43.439Z,1.44
2018-12-14T01:11:10.827Z,1.45
2018-12-14T01:13:38.241Z,1.55
2018-12-14T01:16:05.626Z,1.62
2018-12-14T01:18:33.034Z,1.51
2018-12-14T01:21:00.503Z,1.56
2018-12-14T01:23:27.926Z,1.58
2018-12-14T01:25:55.308Z,1.57
2018-12-14T01:28:22.685Z,1.61
2018-12-14T01:30:50.122Z,1.64
2018-12-14T01:33:17.579Z,1.51
2018-12-14T01:35:45.049Z,1.46
2018-12-14T01:38:12.494Z,1.52
2018-12-14T01:40:39.946Z,1.50
2018-12-14T01:43:07.405Z,1.52
2018-12-14T01:45:34.806Z,1.55
2018-12-14T01:48:02.214Z,1.61
2018-12-14T01:50:29.723Z,1.59
2018-12-14T01:52:57.138Z,1.55
2018-12-14T01:55:24.646Z,1.65
2018-12-14T01:57:52.233Z,1.62
2018-12-14T02:00:19.634Z,1.58
2018-12-14T02:02:47.014Z,1.50
2018-12-14T02:05:14.410Z,1.66
2018-12-14T02:07:41.879Z,1.51
2018-12-14T02:10:09.325Z,1.62
2018-12-14T02:12:36.885Z,1.65
2018-12-14T02:15:05.157Z,1.65
2018-12-14T02:17:32.625Z,1.56
2018-12-14T02:20:00.178Z,1.49
2018-12-14T02:22:27.599Z,1.50
2018-12-14T02:24:55.060Z,1.65
2018-12-14T02:27:22.438Z,1.62
2018-12-14T02:29:49.907Z,1.60
2018-12-14T02:32:17.302Z,1.39
2018-12-14T02:34:44.794Z,1.45
2018-12-14T02:37:12.274Z,1.49
2018-12-14T02:39:39.653Z,1.44
2018-12-14T02:42:07.190Z,1.42
2018-12-14T02:44:34.658Z,1.39
2018-12-14T02:47:02.113Z,1.28
2018-12-14T02:49:29.663Z,1.29
2018-12-14T02:51:57.059Z,1.28
2018-12-14T02:54:24.456Z,1.26
2018-12-14T02:56:51.926Z,1.32
2018-12-14T02:59:19.381Z,1.34
2018-12-14T03:01:46.790Z,1.38
2018-12-14T03:04:14.198Z,1.42
2018-12-14T03:06:41.588Z,1.42
2018-12-14T03:09:08.985Z,1.39
2018-12-14T03:11:36.394Z,1.48
2018-12-14T03:14:03.819Z,1.46
2018-12-14T03:16:31.302Z,1.55
2018-12-14T03:18:58.745Z,1.49
2018-12-14T03:21:26.225Z,1.48
2018-12-14T03:23:53.646Z,1.54
2018-12-14T03:26:21.063Z,1.56
2018-12-14T03:28:48.443Z,1.59
2018-12-14T03:31:15.911Z,1.56
2018-12-14T03:33:43.377Z,1.48
2018-12-14T03:36:10.776Z,1.33
2018-12-14T03:38:38.246Z,1.37
2018-12-14T03:41:05.950Z,1.45
2018-12-14T03:43:33.409Z,1.44
2018-12-14T03:46:00.861Z,1.43
2018-12-14T03:48:28.242Z,1.35
2018-12-14T03:50:55.779Z,1.28
2018-12-14T03:53:23.231Z,1.30
2018-12-14T03:55:50.686Z,1.28
2018-12-14T03:58:18.159Z,1.21
2018-12-14T04:00:45.555Z,1.24
2018-12-14T04:03:12.945Z,1.15
2018-12-14T04:05:40.443Z,1.23
2018-12-14T04:08:07.872Z,1.19
2018-12-14T04:10:35.330Z,1.19
2018-12-14T04:13:02.782Z,1.24
2018-12-14T04:15:30.158Z,1.25
2018-12-14T04:17:57.589Z,1.23
2018-12-14T04:20:24.973Z,1.18
2018-12-14T04:22:52.366Z,1.19
2018-12-14T04:25:19.862Z,1.28
2018-12-14T04:27:47.315Z,1.36
2018-12-14T04:30:14.717Z,1.40
2018-12-14T04:32:42.185Z,1.35
2018-12-14T04:35:09.570Z,1.25
2018-12-14T04:37:36.952Z,1.21
2018-12-14T04:40:06.638Z,1.29
2018-12-14T04:42:34.238Z,1.23
2018-12-14T04:45:01.617Z,1.07
2018-12-14T04:47:29.025Z,0.94
2018-12-14T04:49:56.489Z,0.97
2018-12-14T04:52:23.938Z,0.84
2018-12-14T04:54:51.395Z,0.84
2018-12-14T04:57:18.799Z,0.91
2018-12-14T04:59:46.258Z,0.81
2018-12-14T05:02:13.759Z,0.83
2018-12-14T05:04:41.229Z,0.91
2018-12-14T05:07:08.674Z,0.95
2018-12-14T05:09:36.139Z,0.90
2018-12-14T05:12:03.587Z,0.92
2018-12-14T05:14:31.052Z,1.00
2018-12-14T05:16:58.527Z,1.03
2018-12-14T05:19:25.911Z,0.90
2018-12-14T05:21:53.610Z,0.83
2018-12-14T05:24:21.020Z,0.93
2018-12-14T05:26:48.539Z,1.05
2018-12-14T05:29:15.943Z,0.94
2018-12-14T05:31:43.346Z,1.02
2018-12-14T05:34:10.802Z,0.92
2018-12-14T05:36:38.276Z,0.95
2018-12-14T05:39:06.186Z,1.02
2018-12-14T05:41:33.574Z,1.18
2018-12-14T05:44:00.963Z,1.39
2018-12-14T05:46:28.398Z,1.29
2018-12-14T05:48:55.953Z,1.29
2018-12-14T05:51:23.410Z,1.33
2018-12-14T05:53:50.857Z,1.39
2018-12-14T05:56:18.246Z,1.34
2018-12-14T05:58:45.678Z,1.34
2018-12-14T06:01:13.125Z,1.14
2018-12-14T06:03:40.594Z,1.27
2018-12-14T06:06:07.975Z,1.01
2018-12-14T06:08:35.379Z,0.95
2018-12-14T06:11:02.803Z,0.93
2018-12-14T06:13:30.265Z,1.01
2018-12-14T06:15:57.690Z,1.02
2018-12-14T06:18:25.147Z,1.11
2018-12-14T06:20:52.590Z,0.99
2018-12-14T06:23:20.042Z,0.99
2018-12-14T06:25:47.480Z,1.01
2018-12-14T06:28:14.871Z,0.81
2018-12-14T06:30:42.264Z,0.78
2018-12-14T06:33:09.650Z,0.60
2018-12-14T06:35:37.216Z,0.58
2018-12-14T06:38:04.631Z,0.60
2018-12-14T06:40:32.028Z,0.56
2018-12-14T06:42:59.470Z,0.69
2018-12-14T06:45:26.922Z,0.71
2018-12-14T06:47:54.302Z,0.67
2018-12-14T06:50:21.714Z,0.80
2018-12-14T06:52:49.608Z,0.73
2018-12-14T06:55:17.002Z,0.86
2018-12-14T06:57:44.438Z,0.71
2018-12-14T07:00:11.842Z,0.79
2018-12-14T07:02:39.248Z,0.70
2018-12-14T07:05:06.802Z,0.79
2018-12-14T07:07:34.190Z,0.68
2018-12-14T07:10:01.583Z,0.70
2018-12-14T07:12:29.074Z,1.01
2018-12-14T07:14:56.532Z,1.10
2018-12-14T07:17:23.986Z,1.22
2018-12-14T07:19:51.448Z,1.06
2018-12-14T07:22:18.906Z,1.09
2018-12-14T07:24:46.301Z,1.09
2018-12-14T07:27:13.710Z,1.25
2018-12-14T07:29:41.107Z,1.23
2018-12-14T07:32:08.522Z,1.23
2018-12-14T07:34:35.906Z,1.20
2018-12-14T07:37:03.311Z,1.23
2018-12-14T07:39:30.796Z,1.16
2018-12-14T07:41:58.186Z,1.13
2018-12-14T07:44:25.621Z,1.17
2018-12-14T07:46:53.172Z,1.16
2018-12-14T07:49:20.550Z,1.18
2018-12-14T07:51:47.974Z,1.10
2018-12-14T07:54:15.550Z,1.23
2018-12-14T07:56:43.074Z,1.27
2018-12-14T07:59:10.976Z,1.20
2018-12-14T08:01:38.371Z,1.26
2018-12-14T08:04:05.759Z,1.21
2018-12-14T08:06:33.223Z,1.33
2018-12-14T08:09:00.682Z,1.42
2018-12-14T08:11:28.138Z,1.46
2018-12-14T08:13:55.585Z,1.43
2018-12-14T08:16:23.038Z,1.45
2018-12-14T08:18:50.506Z,1.50
2018-12-14T08:21:17.969Z,1.69
2018-12-14T08:23:45.358Z,1.81
2018-12-14T08:26:12.755Z,1.81
2018-12-14T08:28:40.235Z,1.73
2018-12-14T08:31:07.621Z,1.75
2018-12-14T08:33:35.150Z,1.85
2018-12-14T08:36:02.706Z,1.83
2018-12-14T08:38:30.082Z,1.87
2018-12-14T08:40:57.558Z,2.02
2018-12-14T08:43:24.974Z,2.16
2018-12-14T08:45:52.363Z,2.13
2018-12-14T08:48:19.848Z,2.21
2018-12-14T08:50:47.247Z,2.19
2018-12-14T08:53:14.842Z,2.26
2018-12-14T08:55:42.266Z,2.04
2018-12-14T08:58:09.738Z,1.88
2018-12-14T09:00:37.122Z,1.72
2018-12-14T09:03:04.522Z,1.72
2018-12-14T09:05:31.982Z,1.59
2018-12-14T09:07:59.374Z,1.48
2018-12-14T09:10:26.800Z,1.61
2018-12-14T09:12:54.251Z,1.54
2018-12-14T09:15:21.706Z,1.53
2018-12-14T09:17:49.334Z,1.47
2018-12-14T09:20:16.710Z,1.49
2018-12-14T09:22:44.098Z,1.48
2018-12-14T09:25:11.499Z,1.49
2018-12-14T09:27:38.899Z,1.57
2018-12-14T09:30:06.487Z,1.57
2018-12-14T09:32:33.906Z,1.62
2018-12-14T09:35:01.405Z,1.65
2018-12-14T09:37:28.818Z,1.73
2018-12-14T09:39:57.279Z,1.58
2018-12-14T09:42:24.954Z,1.72
2018-12-14T09:44:52.355Z,1.70
2018-12-14T09:47:19.830Z,1.67
2018-12-14T09:49:47.347Z,1.82
2018-12-14T09:52:14.790Z,1.78
2018-12-14T09:54:42.246Z,1.82
2018-12-14T09:57:09.698Z,1.92
2018-12-14T09:59:37.088Z,1.76
2018-12-14T10:02:04.510Z,1.84
2018-12-14T10:04:31.907Z,1.81
2018-12-14T10:06:59.326Z,1.82
2018-12-14T10:09:26.726Z,1.98
2018-12-14T10:11:55.271Z,2.04
2018-12-14T10:14:23.167Z,2.06
2018-12-14T10:16:50.594Z,1.93
2018-12-14T10:19:17.982Z,1.76
2018-12-14T10:21:45.369Z,1.77
2018-12-14T10:24:12.767Z,1.84
2018-12-14T10:26:40.206Z,1.80
2018-12-14T10:29:07.659Z,1.99
2018-12-14T10:31:35.123Z,1.92
2018-12-14T10:34:02.583Z,2.02
2018-12-14T10:36:29.970Z,2.10
2018-12-14T10:38:57.386Z,2.09
2018-12-14T10:41:24.846Z,1.97
2018-12-14T10:43:52.302Z,2.01
2018-12-14T10:46:19.758Z,1.94
2018-12-14T10:48:47.221Z,2.00
2018-12-14T10:51:14.669Z,1.84
2018-12-14T10:53:42.130Z,1.90
2018-12-14T10:56:09.519Z,1.92
2018-12-14T10:58:37.038Z,1.94
2018-12-14T11:01:14.279Z,2.06
2018-12-14T11:03:39.639Z,1.96
2018-12-14T11:06:07.090Z,2.15
2018-12-14T11:08:34.555Z,2.06
2018-12-14T11:11:01.946Z,2.02
2018-12-14T11:13:29.358Z,2.19
2018-12-14T11:15:56.819Z,2.10
2018-12-14T11:18:24.279Z,2.17
2018-12-14T11:20:51.731Z,2.29
2018-12-14T11:23:19.114Z,2.31
2018-12-14T11:25:46.510Z,2.18
2018-12-14T11:28:13.898Z,2.13
2018-12-14T11:30:41.357Z,2.08
2018-12-14T11:33:08.909Z,2.05
2018-12-14T11:35:36.314Z,2.01
2018-12-14T11:38:03.707Z,2.09
2018-12-14T11:40:31.099Z,2.07
2018-12-14T11:42:58.534Z,2.11
2018-12-14T11:45:25.924Z,2.20
2018-12-14T11:47:53.397Z,2.18
2018-12-14T11:50:20.801Z,2.07
2018-12-14T11:52:48.276Z,2.06
2018-12-14T11:55:15.745Z,2.11
2018-12-14T11:57:43.283Z,2.11
2018-12-14T12:00:10.707Z,1.93
2018-12-14T12:02:43.072Z,1.88
2018-12-14T12:05:07.483Z,1.73
2018-12-14T12:07:34.958Z,1.88
2018-12-14T12:10:02.354Z,1.89
2018-12-14T12:12:29.841Z,2.02
2018-12-14T12:14:57.230Z,2.00
2018-12-14T12:17:24.671Z,1.90
2018-12-14T12:19:52.130Z,1.87
2018-12-14T12:22:19.586Z,1.85
2018-12-14T12:24:47.043Z,2.05
2018-12-14T12:27:14.498Z,2.08
2018-12-14T12:29:41.882Z,1.93
2018-12-14T12:32:09.310Z,2.01
2018-12-14T12:34:36.778Z,2.03
2018-12-14T12:37:04.183Z,1.93
2018-12-14T12:39:31.584Z,2.06
2018-12-14T12:41:59.034Z,2.10
2018-12-14T12:44:26.430Z,2.20
2018-12-14T12:46:53.818Z,2.31
2018-12-14T12:49:21.210Z,2.10
2018-12-14T12:51:48.698Z,2.00
2018-12-14T12:54:16.087Z,2.02
2018-12-14T12:56:43.571Z,2.01
2018-12-14T12:59:11.030Z,2.23
2018-12-14T13:01:38.491Z,2.54
2018-12-14T13:04:05.949Z,2.63
2018-12-14T13:06:33.358Z,2.70
2018-12-14T13:09:00.760Z,2.82
2018-12-14T13:11:28.209Z,2.58
2018-12-14T13:13:55.670Z,2.41
2018-12-14T13:16:23.124Z,2.32
2018-12-14T13:18:50.511Z,2.38
2018-12-14T13:21:17.901Z,2.45
2018-12-14T13:23:45.397Z,2.35
2018-12-14T13:26:12.810Z,2.32
2018-12-14T13:28:40.235Z,2.49
2018-12-14T13:31:07.651Z,2.68
2018-12-14T13:33:35.142Z,2.55
2018-12-14T13:36:02.626Z,2.40
2018-12-14T13:38:30.033Z,2.36
2018-12-14T13:40:57.509Z,2.28
2018-12-14T13:43:25.124Z,2.36
2018-12-14T13:45:53.114Z,2.23
2018-12-14T13:48:20.817Z,2.15
2018-12-14T13:50:48.337Z,2.19
2018-12-14T13:53:15.825Z,2.11
2018-12-14T13:55:43.202Z,2.28
2018-12-14T13:58:10.598Z,2.37
2018-12-14T14:00:38.558Z,2.36
2018-12-14T14:03:05.958Z,2.13
2018-12-14T14:05:33.342Z,2.10
2018-12-14T14:08:00.737Z,1.95
2018-12-14T14:10:28.118Z,1.95
2018-12-14T14:12:55.519Z,2.05
2018-12-14T14:15:23.008Z,2.03
2018-12-14T14:17:50.410Z,2.13
2018-12-14T14:20:17.802Z,2.11
2018-12-14T14:22:45.278Z,2.22
2018-12-14T14:25:17.432Z,2.20
2018-12-14T14:27:42.098Z,1.99
2018-12-14T14:30:12.666Z,2.09
2018-12-14T14:32:40.054Z,2.14
2018-12-14T14:35:07.482Z,2.16
2018-12-14T14:37:34.934Z,2.11
2018-12-14T14:40:02.404Z,1.98
2018-12-14T14:42:29.782Z,1.79
2018-12-14T14:44:59.940Z,1.76
2018-12-14T14:47:26.606Z,1.78
2018-12-14T14:49:53.996Z,1.79
2018-12-14T14:52:21.395Z,1.77
2018-12-14T14:54:48.879Z,1.68
2018-12-14T14:57:16.274Z,1.65
2018-12-14T14:59:43.666Z,1.56
2018-12-14T15:02:11.053Z,1.56
2018-12-14T15:04:38.441Z,1.54
2018-12-14T15:07:05.846Z,1.53
2018-12-14T15:09:33.310Z,1.57
2018-12-14T15:12:00.694Z,1.68
2018-12-14T15:14:28.136Z,1.65
2018-12-14T15:16:55.530Z,1.67
2018-12-14T15:19:22.917Z,1.87
2018-12-14T15:21:50.338Z,1.81
2018-12-14T15:24:17.733Z,1.81
2018-12-14T15:26:45.203Z,1.79
2018-12-14T15:29:12.753Z,1.77
2018-12-14T15:31:41.755Z,1.82
2018-12-14T15:34:14.325Z,1.93
2018-12-14T15:36:38.537Z,2.05
2018-12-14T15:39:06.178Z,2.02
2018-12-14T15:41:33.631Z,1.95
2018-12-14T15:44:01.018Z,1.84
2018-12-14T15:46:29.312Z,1.76
2018-12-14T15:48:56.918Z,1.63
2018-12-14T15:51:24.377Z,1.59
2018-12-14T15:53:51.829Z,1.60
2018-12-14T15:56:19.221Z,1.61
2018-12-14T15:58:46.651Z,1.47
2018-12-14T16:01:14.098Z,1.43
2018-12-14T16:03:41.557Z,1.46
2018-12-14T16:06:09.119Z,1.59
2018-12-14T16:08:36.570Z,1.51
2018-12-14T16:11:04.030Z,1.68
2018-12-14T16:13:31.487Z,1.70
2018-12-14T16:15:58.989Z,1.49
2018-12-14T16:18:26.454Z,1.61
2018-12-14T16:20:53.965Z,1.63
2018-12-14T16:23:21.519Z,1.61
2018-12-14T16:25:48.919Z,1.64
2018-12-14T16:28:16.401Z,1.45
2018-12-14T16:30:43.902Z,1.42
2018-12-14T16:33:11.348Z,1.22
2018-12-14T16:35:38.804Z,1.29
2018-12-14T16:38:06.323Z,1.36
2018-12-14T16:40:33.734Z,1.27
2018-12-14T16:43:01.171Z,1.26
2018-12-14T16:45:28.554Z,1.26
2018-12-14T16:47:55.954Z,1.25
2018-12-14T16:50:23.438Z,1.20
2018-12-14T16:52:50.894Z,1.13
2018-12-14T16:55:18.358Z,1.08
2018-12-14T16:57:45.747Z,1.07
2018-12-14T17:00:13.166Z,1.07
2018-12-14T17:02:40.630Z,1.09
2018-12-14T17:05:08.027Z,1.06
2018-12-14T17:07:35.433Z,1.00
2018-12-14T17:10:03.438Z,1.02
2018-12-14T17:12:30.859Z,1.12
2018-12-14T17:14:58.251Z,1.09
2018-12-14T17:17:25.670Z,1.14
2018-12-14T17:19:53.056Z,1.16
2018-12-14T17:22:20.492Z,1.26
2018-12-14T17:24:47.886Z,1.22
2018-12-14T17:27:15.282Z,1.22
2018-12-14T17:29:42.752Z,1.27
2018-12-14T17:32:10.146Z,1.19
2018-12-14T17:34:37.538Z,1.10
2018-12-14T17:37:05.019Z,1.01
2018-12-14T17:39:32.422Z,0.96
2018-12-14T17:41:59.934Z,1.01
2018-12-14T17:44:27.490Z,0.89
2018-12-14T17:46:55.085Z,0.99
2018-12-14T17:49:22.505Z,0.99
2018-12-14T17:51:49.903Z,1.02
2018-12-14T17:54:17.311Z,1.03
2018-12-14T17:56:44.701Z,1.02
2018-12-14T17:59:12.110Z,1.16
2018-12-14T18:01:39.614Z,1.07
2018-12-14T18:04:07.042Z,1.12
2018-12-14T18:06:34.497Z,1.06
2018-12-14T18:09:01.894Z,1.13
2018-12-14T18:11:29.308Z,1.17
2018-12-14T18:13:56.767Z,1.05
2018-12-14T18:16:24.167Z,0.96
2018-12-14T18:18:51.582Z,1.01
2018-12-14T18:21:19.050Z,0.93
2018-12-14T18:23:46.485Z,1.09
2018-12-14T18:26:13.930Z,1.09
2018-12-14T18:28:41.402Z,1.16
2018-12-14T18:31:08.886Z,1.09
2018-12-14T18:33:36.346Z,1.06
2018-12-14T18:36:03.801Z,1.10
2018-12-14T18:38:31.199Z,0.98
2018-12-14T18:40:58.686Z,1.10
2018-12-14T18:43:26.152Z,1.11
2018-12-14T18:45:53.619Z,1.00
2018-12-14T18:48:21.015Z,1.01
2018-12-14T18:50:48.515Z,0.91
2018-12-14T18:53:16.031Z,0.93
2018-12-14T18:55:43.447Z,1.01
2018-12-14T18:58:10.883Z,1.11
2018-12-14T19:00:38.447Z,1.12
2018-12-14T19:03:05.843Z,1.02
2018-12-14T19:05:33.238Z,1.05
2018-12-14T19:08:00.700Z,1.10
2018-12-14T19:10:28.109Z,1.06
2018-12-14T19:12:55.495Z,1.05
2018-12-14T19:15:22.907Z,1.02
2018-12-14T19:17:50.334Z,1.02
2018-12-14T19:20:17.725Z,1.06
2018-12-14T19:22:45.146Z,1.11
2018-12-14T19:25:12.602Z,1.11
2018-12-14T19:27:40.064Z,1.03
2018-12-14T19:30:07.463Z,0.89
2018-12-14T19:32:34.845Z,0.81
2018-12-14T19:35:02.248Z,0.96
2018-12-14T19:37:29.692Z,1.08
2018-12-14T19:39:57.142Z,0.99
2018-12-14T19:42:24.598Z,0.88
2018-12-14T19:44:52.054Z,0.79
2018-12-14T19:47:19.438Z,0.88
2018-12-14T19:49:46.975Z,0.85
2018-12-14T19:52:14.551Z,1.04
2018-12-14T19:54:42.049Z,1.14
2018-12-14T19:57:09.546Z,1.26
2018-12-14T19:59:36.999Z,1.30
2018-12-14T20:02:04.459Z,1.24
2018-12-14T20:04:31.909Z,1.07
2018-12-14T20:06:59.376Z,0.90
2018-12-14T20:09:26.831Z,0.97
2018-12-14T20:11:54.287Z,0.91
2018-12-14T20:14:21.739Z,0.89
2018-12-14T20:16:49.214Z,0.88
2018-12-14T20:19:16.659Z,1.03
2018-12-14T20:21:44.222Z,0.94
2018-12-14T20:24:11.665Z,0.96
2018-12-14T20:26:39.126Z,0.90
2018-12-14T20:29:06.682Z,0.86
2018-12-14T20:31:34.143Z,0.89
2018-12-14T20:34:01.534Z,0.83
2018-12-14T20:36:28.924Z,0.87
2018-12-14T20:38:56.315Z,0.82
2018-12-14T20:41:23.767Z,0.79
2018-12-14T20:43:51.218Z,0.75
2018-12-14T20:46:19.530Z,0.80
2018-12-14T20:48:47.059Z,0.78
2018-12-14T20:51:14.510Z,0.97
2018-12-14T20:53:41.971Z,1.10
2018-12-14T20:56:09.371Z,1.01
2018-12-14T20:58:36.783Z,0.93
2018-12-14T21:01:04.233Z,0.91
2018-12-14T21:03:31.618Z,0.98
2018-12-14T21:05:59.280Z,1.05
2018-12-14T21:08:27.138Z,1.01
2018-12-14T21:10:54.574Z,1.04
2018-12-14T21:13:21.987Z,1.14
2018-12-14T21:15:49.446Z,1.12
2018-12-14T21:18:16.951Z,1.00
2018-12-14T21:20:44.339Z,0.83
2018-12-14T21:23:11.754Z,0.96
2018-12-14T21:25:39.219Z,0.85
2018-12-14T21:28:06.618Z,1.00
2018-12-14T21:30:34.010Z,0.88
2018-12-14T21:33:01.402Z,0.83
2018-12-14T21:35:28.916Z,0.78
2018-12-14T21:37:56.307Z,0.97
2018-12-14T21:40:23.753Z,0.79
2018-12-14T21:42:51.316Z,0.88
2018-12-14T21:45:18.762Z,0.78
2018-12-14T21:47:46.222Z,0.63
2018-12-14T21:50:13.614Z,0.66
2018-12-14T21:52:41.014Z,0.75
2018-12-14T21:55:08.505Z,0.71
2018-12-14T21:57:35.951Z,0.78
2018-12-14T22:00:08.227Z,0.68
2018-12-14T22:02:35.666Z,0.75
2018-12-14T22:05:03.244Z,0.72
2018-12-14T22:07:30.627Z,0.73
2018-12-14T22:09:58.039Z,0.77
2018-12-14T22:12:25.755Z,0.63
2018-12-14T22:14:53.167Z,0.62
2018-12-14T22:17:20.618Z,0.77
2018-12-14T22:19:48.002Z,0.80
2018-12-14T22:22:15.436Z,0.90
2018-12-14T22:24:42.891Z,0.96
2018-12-14T22:27:10.270Z,0.85
2018-12-14T22:29:37.694Z,1.00
2018-12-14T22:32:05.082Z,0.92
2018-12-14T22:34:32.490Z,0.92
2018-12-14T22:37:00.067Z,0.93
2018-12-14T22:39:27.454Z,0.81
2018-12-14T22:41:54.876Z,0.82
2018-12-14T22:44:22.276Z,0.88
2018-12-14T22:46:49.672Z,0.90
2018-12-14T22:49:17.148Z,0.81
2018-12-14T22:51:44.608Z,0.93
2018-12-14T22:54:11.999Z,1.01
2018-12-14T22:56:39.515Z,1.07
2018-12-14T22:59:06.914Z,0.98
2018-12-14T23:01:34.422Z,0.91
2018-12-14T23:04:01.903Z,0.91
2018-12-14T23:06:29.300Z,0.87
2018-12-14T23:08:57.517Z,0.95
2018-12-14T23:11:24.904Z,0.83
2018-12-14T23:13:52.471Z,0.79
2018-12-14T23:16:20.002Z,0.84
2018-12-14T23:18:47.407Z,0.81
2018-12-14T23:21:14.905Z,0.76
2018-12-14T23:23:42.360Z,0.60
2018-12-14T23:26:09.786Z,0.68
2018-12-14T23:28:37.301Z,0.76
2018-12-14T23:31:04.750Z,0.78
2018-12-14T23:33:32.187Z,0.78
2018-12-14T23:35:59.571Z,0.77
2018-12-14T23:38:27.014Z,0.90
2018-12-14T23:40:54.490Z,0.96
2018-12-14T23:43:21.915Z,1.09
2018-12-14T23:45:49.306Z,1.09
2018-12-14T23:48:16.725Z,1.11
2018-12-14T23:50:44.124Z,1.03
2018-12-14T23:53:11.690Z,1.11
2018-12-14T23:55:39.115Z,0.97
2018-12-14T23:58:06.499Z,1.10
